Time;durP1;ratioP1;P1;durP2;ratioP2;P2;SDS_P1;SDS_P2;PMS_P1;PMS_P2;Temp;Humidity;BMP_temperature;BMP_pressure;BME280_temperature;BME280_humidity;BME280_pressure;Samples;Min_cycle;Max_cycle;Signal;HPM_P1;HPM_P2
2024/01/04 00:00:56;;;;;;;0.30;0.30;;;;;;;7.54;100.00;97367.22;5095923;28;20214;-61
2024/01/04 00:03:26;;;;;;;0.28;0.28;;;;;;;7.63;100.00;97359.47;5099673;28;20553;-61
2024/01/04 00:05:53;;;;;;;0.40;0.40;;;;;;;7.61;100.00;97360.78;5096170;28;20063;-59
2024/01/04 00:08:20;;;;;;;0.20;0.20;;;;;;;7.70;100.00;97354.66;5099342;28;20077;-59
2024/01/04 00:10:47;;;;;;;0.40;0.40;;;;;;;7.64;100.00;97352.25;5096406;28;20486;-59
2024/01/04 00:13:14;;;;;;;0.22;0.22;;;;;;;7.62;100.00;97351.75;5099018;28;20782;-61
2024/01/04 00:15:41;;;;;;;0.32;0.32;;;;;;;7.65;100.00;97364.53;5095807;28;20100;-59
2024/01/04 00:18:08;;;;;;;0.30;0.30;;;;;;;7.64;100.00;97366.41;5093716;28;20529;-61
2024/01/04 00:20:36;;;;;;;0.30;0.30;;;;;;;7.67;100.00;97365.84;5089405;28;20067;-61
2024/01/04 00:23:04;;;;;;;0.30;0.30;;;;;;;7.62;100.00;97370.41;5096938;28;20097;-59
2024/01/04 00:25:31;;;;;;;0.30;0.30;;;;;;;7.54;100.00;97363.75;5100540;28;20055;-61
2024/01/04 00:27:59;;;;;;;0.30;0.30;;;;;;;7.61;100.00;97380.25;5093215;28;20050;-61
2024/01/04 00:30:26;;;;;;;0.40;0.40;;;;;;;7.59;100.00;97376.25;5072678;28;20043;-60
2024/01/04 00:32:53;;;;;;;0.30;0.30;;;;;;;7.65;100.00;97376.00;5081570;28;20040;-60
2024/01/04 00:35:20;;;;;;;0.30;0.30;;;;;;;7.57;100.00;97389.88;5101446;28;20143;-60
2024/01/04 00:37:49;;;;;;;0.30;0.30;;;;;;;7.60;100.00;97383.19;5071659;28;20051;-60
2024/01/04 00:40:16;;;;;;;0.30;0.30;;;;;;;7.71;100.00;97385.59;5094200;28;20052;-60
2024/01/04 00:42:43;;;;;;;0.40;0.40;;;;;;;7.61;100.00;97398.13;5076805;28;20405;-60
2024/01/04 00:45:11;;;;;;;0.30;0.30;;;;;;;7.57;100.00;97412.00;5097235;28;20052;-60
2024/01/04 00:47:38;;;;;;;0.30;0.30;;;;;;;7.63;100.00;97404.78;5089999;28;20046;-60
2024/01/04 00:50:06;;;;;;;0.30;0.30;;;;;;;7.58;100.00;97402.13;5095673;28;20106;-60
2024/01/04 00:52:33;;;;;;;0.28;0.28;;;;;;;7.61;100.00;97411.44;5091352;28;20040;-60
2024/01/04 00:55:01;;;;;;;0.20;0.20;;;;;;;7.68;100.00;97428.78;5098923;28;20051;-60
2024/01/04 00:57:28;;;;;;;0.30;0.30;;;;;;;7.66;100.00;97425.59;5098298;28;20127;-60
2024/01/04 00:59:55;;;;;;;0.30;0.30;;;;;;;7.61;100.00;97416.78;5100514;28;20048;-60
2024/01/04 01:02:22;;;;;;;0.28;0.28;;;;;;;7.56;100.00;97420.25;5094218;28;20078;-60
2024/01/04 01:04:49;;;;;;;0.30;0.30;;;;;;;7.53;100.00;97410.91;5090841;28;20139;-60
2024/01/04 01:07:16;;;;;;;0.30;0.30;;;;;;;7.61;100.00;97422.13;5099868;28;20065;-60
2024/01/04 01:09:43;;;;;;;0.30;0.30;;;;;;;7.61;100.00;97432.78;5094805;28;20496;-60
2024/01/04 01:12:12;;;;;;;0.32;0.32;;;;;;;7.64;100.00;97445.56;5096031;28;20059;-60
2024/01/04 01:14:39;;;;;;;0.30;0.30;;;;;;;7.54;100.00;97457.06;5096482;28;20414;-60
2024/01/04 01:17:06;;;;;;;0.22;0.22;;;;;;;7.62;100.00;97458.41;5096554;28;20043;-60
2024/01/04 01:19:33;;;;;;;0.25;0.25;;;;;;;7.43;100.00;97456.22;5091190;28;20523;-60
2024/01/04 01:22:00;;;;;;;0.30;0.30;;;;;;;7.48;100.00;97466.91;5090490;28;20047;-60
2024/01/04 01:24:27;;;;;;;0.50;0.50;;;;;;;7.37;100.00;97470.63;5095487;28;20408;-60
2024/01/04 01:26:54;;;;;;;0.30;0.30;;;;;;;7.32;100.00;97482.06;5096197;28;20035;-59
2024/01/04 01:29:23;;;;;;;0.35;0.35;;;;;;;7.26;100.00;97500.97;5092743;28;20059;-60
2024/01/04 01:31:50;;;;;;;0.30;0.30;;;;;;;7.26;100.00;97506.31;5075163;28;20154;-60
2024/01/04 01:34:17;;;;;;;0.40;0.40;;;;;;;7.21;100.00;97514.28;5092194;28;20048;-60
2024/01/04 01:36:45;;;;;;;0.30;0.30;;;;;;;7.18;100.00;97520.94;5097339;28;20114;-60
2024/01/04 01:39:12;;;;;;;0.30;0.30;;;;;;;7.15;100.00;97534.00;5096713;28;20354;-60
2024/01/04 01:41:39;;;;;;;0.32;0.32;;;;;;;7.11;100.00;97537.19;5096611;28;20039;-60
2024/01/04 01:44:06;;;;;;;0.30;0.30;;;;;;;7.07;100.00;97541.44;5098856;28;20077;-60
2024/01/04 01:46:35;;;;;;;0.30;0.30;;;;;;;7.01;100.00;97536.31;5073405;28;20092;-60
2024/01/04 01:49:02;;;;;;;0.38;0.38;;;;;;;6.94;100.00;97547.25;5093500;28;20052;-60
2024/01/04 01:51:29;;;;;;;0.30;0.30;;;;;;;6.86;100.00;97545.88;5099440;28;20770;-60
2024/01/04 01:53:56;;;;;;;0.30;0.30;;;;;;;6.87;100.00;97552.78;5100224;28;20082;-60
2024/01/04 01:56:23;;;;;;;0.30;0.30;;;;;;;6.85;100.00;97556.78;5093826;28;20126;-60
2024/01/04 01:58:50;;;;;;;0.40;0.40;;;;;;;6.89;100.00;97560.53;5068247;28;20492;-60
2024/01/04 02:01:17;;;;;;;0.30;0.30;;;;;;;6.78;100.00;97564.19;5075616;28;20040;-60
2024/01/04 02:03:46;;;;;;;0.30;0.30;;;;;;;6.78;100.00;97565.00;5086245;28;20050;-60
2024/01/04 02:06:14;;;;;;;0.30;0.30;;;;;;;6.77;100.00;97562.59;5100201;28;20059;-60
2024/01/04 02:08:41;;;;;;;0.30;0.30;;;;;;;6.84;100.00;97568.47;5095037;28;20043;-60
2024/01/04 02:11:08;;;;;;;0.35;0.35;;;;;;;6.85;100.00;97570.88;5070209;28;20142;-60
2024/01/04 02:13:34;;;;;;;0.30;0.30;;;;;;;6.87;100.00;97578.63;5077169;28;20130;-60
2024/01/04 02:16:01;;;;;;;0.30;0.30;;;;;;;6.88;100.00;97585.53;5088481;28;20127;-60
2024/01/04 02:18:28;;;;;;;0.40;0.40;;;;;;;6.84;100.00;97587.13;5079367;28;20856;-60
2024/01/04 02:20:57;;;;;;;0.35;0.35;;;;;;;6.94;100.00;97584.53;5080468;28;20404;-60
2024/01/04 02:23:25;;;;;;;0.30;0.30;;;;;;;6.86;100.00;97579.66;5064470;28;20047;-60
2024/01/04 02:25:52;;;;;;;0.30;0.30;;;;;;;6.97;100.00;97589.34;5095212;28;20051;-60
2024/01/04 02:28:20;;;;;;;0.30;0.30;;;;;;;6.88;100.00;97596.19;5095767;28;20066;-60
2024/01/04 02:30:47;;;;;;;0.30;0.30;;;;;;;6.87;100.00;97602.59;5090365;28;20059;-60
2024/01/04 02:33:14;;;;;;;0.30;0.30;;;;;;;6.94;100.00;97611.16;5078676;28;20400;-60
2024/01/04 02:35:41;;;;;;;0.30;0.30;;;;;;;6.88;100.00;97599.66;5071993;28;20118;-60
2024/01/04 02:38:08;;;;;;;0.30;0.30;;;;;;;6.88;100.00;97606.84;5089176;28;20058;-60
2024/01/04 02:40:37;;;;;;;0.40;0.40;;;;;;;6.81;100.00;97608.94;5094841;28;20125;-60
2024/01/04 02:43:09;;;;;;;0.30;0.30;;;;;;;6.97;100.00;97615.97;5094349;28;20117;-60
2024/01/04 02:45:37;;;;;;;0.30;0.30;;;;;;;6.90;100.00;97620.72;5070860;28;20158;-60
2024/01/04 02:48:04;;;;;;;0.40;0.40;;;;;;;6.84;100.00;97621.72;5094730;28;20043;-60
2024/01/04 02:50:32;;;;;;;0.38;0.38;;;;;;;6.83;100.00;97620.13;5093116;28;20047;-60
2024/01/04 02:52:59;;;;;;;0.25;0.25;;;;;;;6.82;100.00;97621.22;5059967;28;20036;-60
2024/01/04 02:55:26;;;;;;;0.35;0.35;;;;;;;6.68;100.00;97618.97;5080515;28;20055;-59
2024/01/04 02:57:55;;;;;;;0.30;0.30;;;;;;;6.60;100.00;97627.44;5094120;28;20062;-60
2024/01/04 03:00:22;;;;;;;0.38;0.38;;;;;;;6.60;100.00;97630.13;5077554;28;20126;-59
2024/01/04 03:02:50;;;;;;;0.30;0.30;;;;;;;6.66;100.00;97639.75;5089036;28;20048;-59
2024/01/04 03:05:18;;;;;;;0.30;0.30;;;;;;;6.65;100.00;97645.31;5097807;28;20055;-59
2024/01/04 03:07:45;;;;;;;0.47;0.47;;;;;;;6.76;100.00;97643.53;5091528;28;20126;-60
2024/01/04 03:10:12;;;;;;;0.40;0.40;;;;;;;6.81;100.00;97643.56;5095714;28;20122;-59
2024/01/04 03:12:40;;;;;;;0.30;0.30;;;;;;;6.94;100.00;97643.13;5089965;28;20043;-60
2024/01/04 03:15:10;;;;;;;0.30;0.30;;;;;;;7.01;100.00;97654.34;5100021;28;20118;-60
2024/01/04 03:17:37;;;;;;;0.30;0.30;;;;;;;6.96;100.00;97654.31;5096109;28;20355;-60
2024/01/04 03:20:05;;;;;;;0.40;0.40;;;;;;;6.96;100.00;97659.63;5089532;28;20135;-60
2024/01/04 03:22:32;;;;;;;0.25;0.25;;;;;;;7.05;100.00;97654.63;5091825;28;20417;-60
2024/01/04 03:24:59;;;;;;;0.35;0.35;;;;;;;6.91;100.00;97662.25;5091848;28;20039;-59
2024/01/04 03:27:26;;;;;;;0.30;0.30;;;;;;;7.10;100.00;97665.31;5095269;28;20478;-59
2024/01/04 03:29:55;;;;;;;0.30;0.30;;;;;;;7.11;100.00;97664.25;5092226;28;20503;-59
2024/01/04 03:32:23;;;;;;;0.40;0.40;;;;;;;7.17;100.00;97667.75;5093231;28;20634;-59
2024/01/04 03:34:50;;;;;;;0.30;0.30;;;;;;;7.10;100.00;97670.66;5092844;28;20054;-59
2024/01/04 03:37:17;;;;;;;0.30;0.30;;;;;;;7.18;100.00;97670.16;5093873;28;20068;-60
2024/01/04 03:39:45;;;;;;;0.30;0.30;;;;;;;7.04;100.00;97675.16;5095080;28;20046;-59
2024/01/04 03:42:12;;;;;;;0.35;0.35;;;;;;;7.17;100.00;97686.41;5092905;28;20085;-59
2024/01/04 03:44:39;;;;;;;0.30;0.30;;;;;;;7.03;100.00;97689.50;5092528;28;20078;-60
2024/01/04 03:47:06;;;;;;;0.30;0.30;;;;;;;7.00;100.00;97694.56;5098263;28;20039;-59
2024/01/04 03:49:34;;;;;;;0.30;0.30;;;;;;;6.95;100.00;97708.66;5092780;28;20051;-60
2024/01/04 03:52:02;;;;;;;0.30;0.30;;;;;;;6.94;100.00;97708.88;5093192;28;20058;-60
2024/01/04 03:54:29;;;;;;;0.30;0.30;;;;;;;6.96;100.00;97720.91;5095728;28;20099;-59
2024/01/04 03:56:56;;;;;;;0.20;0.20;;;;;;;6.90;100.00;97727.25;5093955;28;20185;-59
2024/01/04 03:59:23;;;;;;;0.30;0.30;;;;;;;6.93;100.00;97721.41;5090793;28;20589;-59
2024/01/04 04:01:50;;;;;;;0.28;0.28;;;;;;;6.88;100.00;97724.84;5098336;28;20058;-60
2024/01/04 04:04:17;;;;;;;0.40;0.40;;;;;;;6.97;100.00;97727.84;5094401;28;20040;-59
2024/01/04 04:06:45;;;;;;;0.30;0.30;;;;;;;6.91;100.00;97737.66;5089554;28;20128;-59
2024/01/04 04:09:12;;;;;;;0.30;0.30;;;;;;;6.87;100.00;97733.09;5094645;28;20632;-59
2024/01/04 04:11:40;;;;;;;0.30;0.30;;;;;;;6.90;100.00;97735.25;5089612;28;20055;-60
2024/01/04 04:14:09;;;;;;;0.30;0.30;;;;;;;6.88;100.00;97740.03;5088258;28;20229;-59
2024/01/04 04:16:40;;;;;;;0.20;0.20;;;;;;;6.86;100.00;97726.16;5095031;28;20048;-60
2024/01/04 04:19:07;;;;;;;0.30;0.30;;;;;;;6.97;100.00;97741.16;5075237;28;20048;-60
2024/01/04 04:21:34;;;;;;;0.38;0.38;;;;;;;6.89;100.00;97744.31;5091668;28;20044;-60
2024/01/04 04:24:03;;;;;;;0.22;0.22;;;;;;;6.77;100.00;97747.13;5086873;28;20457;-60
2024/01/04 04:26:32;;;;;;;0.30;0.30;;;;;;;6.76;100.00;97748.16;5083319;28;20054;-59
2024/01/04 04:28:59;;;;;;;0.40;0.40;;;;;;;6.76;100.00;97750.03;5090905;28;20083;-60
2024/01/04 04:31:26;;;;;;;0.35;0.35;;;;;;;6.80;100.00;97761.78;5077358;28;20062;-59
2024/01/04 04:33:54;;;;;;;0.30;0.30;;;;;;;6.85;100.00;97756.50;5092673;28;20048;-60
2024/01/04 04:36:21;;;;;;;0.35;0.35;;;;;;;6.87;100.00;97765.84;5092584;28;20484;-59
2024/01/04 04:38:49;;;;;;;0.30;0.30;;;;;;;6.86;100.00;97764.25;5086722;28;20051;-62
2024/01/04 04:41:17;;;;;;;0.40;0.40;;;;;;;6.90;100.00;97775.19;5092314;28;20588;-60
2024/01/04 04:43:44;;;;;;;0.40;0.40;;;;;;;7.00;100.00;97780.59;5093803;28;20486;-59
2024/01/04 04:46:13;;;;;;;0.40;0.40;;;;;;;6.97;100.00;97783.78;5094959;28;20043;-59
2024/01/04 04:48:40;;;;;;;0.40;0.40;;;;;;;6.98;100.00;97777.38;5074807;28;21057;-59
2024/01/04 04:51:07;;;;;;;0.30;0.30;;;;;;;6.93;100.00;97790.66;5094162;28;20044;-59
2024/01/04 04:53:34;;;;;;;0.32;0.32;;;;;;;7.00;100.00;97788.59;5087157;28;20603;-60
2024/01/04 04:56:01;;;;;;;0.30;0.30;;;;;;;7.03;100.00;97790.75;5088900;28;20044;-59
2024/01/04 04:58:30;;;;;;;0.30;0.30;;;;;;;7.02;100.00;97791.81;5099365;28;20136;-59
2024/01/04 05:00:57;;;;;;;0.30;0.30;;;;;;;7.02;100.00;97791.81;5092453;28;20167;-59
2024/01/04 05:03:24;;;;;;;0.30;0.30;;;;;;;6.98;100.00;97798.69;5096757;28;20135;-60
2024/01/04 05:05:51;;;;;;;0.30;0.30;;;;;;;6.95;100.00;97799.22;5092805;28;20067;-60
2024/01/04 05:08:18;;;;;;;0.32;0.32;;;;;;;6.99;100.00;97802.97;5096034;28;20146;-60
2024/01/04 05:10:45;;;;;;;0.30;0.30;;;;;;;7.02;100.00;97810.47;5089171;28;20047;-60
2024/01/04 05:13:12;;;;;;;0.40;0.40;;;;;;;7.04;100.00;97829.66;5093803;28;20048;-60
2024/01/04 05:15:42;;;;;;;0.30;0.30;;;;;;;6.89;100.00;97833.00;5098671;28;20043;-59
2024/01/04 05:18:09;;;;;;;0.35;0.35;;;;;;;6.70;100.00;97847.72;5093458;28;20482;-59
2024/01/04 05:20:37;;;;;;;0.22;0.22;;;;;;;6.55;100.00;97869.66;5077152;28;20562;-59
2024/01/04 05:23:04;;;;;;;0.30;0.30;;;;;;;6.45;100.00;97865.00;5094263;28;20036;-60
2024/01/04 05:25:32;;;;;;;0.30;0.30;;;;;;;6.37;100.00;97838.84;5100704;28;20568;-59
2024/01/04 05:27:59;;;;;;;0.30;0.30;;;;;;;6.56;100.00;97828.66;5098535;28;21331;-60
2024/01/04 05:30:26;;;;;;;0.30;0.30;;;;;;;6.47;100.00;97835.50;5099634;28;20104;-59
2024/01/04 05:32:54;;;;;;;0.30;0.30;;;;;;;6.66;100.00;97843.94;5098532;28;20458;-60
2024/01/04 05:35:21;;;;;;;0.40;0.40;;;;;;;6.77;100.00;97848.31;5090724;28;20039;-60
2024/01/04 05:37:48;;;;;;;0.28;0.28;;;;;;;6.70;100.00;97850.38;5077967;28;20050;-59
2024/01/04 05:40:16;;;;;;;0.40;0.40;;;;;;;6.93;100.00;97859.91;5069174;28;20047;-60
2024/01/04 05:42:43;;;;;;;0.30;0.30;;;;;;;6.89;100.00;97864.97;5070328;28;20055;-60
2024/01/04 05:45:10;;;;;;;0.40;0.40;;;;;;;6.79;100.00;97864.03;5096034;28;20077;-60
2024/01/04 05:47:38;;;;;;;0.30;0.30;;;;;;;6.73;100.00;97865.03;5092937;28;20071;-60
2024/01/04 05:50:08;;;;;;;0.30;0.30;;;;;;;6.83;100.00;97870.47;5099170;28;20663;-60
2024/01/04 05:52:35;;;;;;;0.40;0.40;;;;;;;6.92;100.00;97868.97;5097487;28;20237;-60
2024/01/04 05:55:02;;;;;;;0.30;0.30;;;;;;;6.99;100.00;97874.91;5093367;28;20333;-61
2024/01/04 05:57:29;;;;;;;0.40;0.40;;;;;;;6.96;100.00;97875.38;5094807;28;20043;-60
2024/01/04 05:59:56;;;;;;;0.38;0.38;;;;;;;7.01;100.00;97870.09;5093783;28;20042;-60
2024/01/04 06:02:26;;;;;;;0.30;0.30;;;;;;;7.10;100.00;97870.47;5098313;28;20052;-60
2024/01/04 06:04:53;;;;;;;0.30;0.30;;;;;;;7.05;100.00;97881.88;5085812;28;20126;-60
2024/01/04 06:07:21;;;;;;;0.20;0.20;;;;;;;7.07;100.00;97882.44;5093514;28;20125;-60
2024/01/04 06:09:48;;;;;;;0.35;0.35;;;;;;;7.11;100.00;97886.22;5091860;28;20047;-60
2024/01/04 06:12:16;;;;;;;0.32;0.32;;;;;;;7.04;100.00;97892.78;5089973;28;20321;-60
2024/01/04 06:14:43;;;;;;;0.30;0.30;;;;;;;7.10;100.00;97903.25;5074927;28;20047;-60
2024/01/04 06:17:10;;;;;;;0.40;0.40;;;;;;;7.11;100.00;97907.53;5077252;28;20050;-60
2024/01/04 06:19:37;;;;;;;0.50;0.50;;;;;;;7.13;100.00;97916.06;5098165;28;20170;-60
2024/01/04 06:22:04;;;;;;;0.43;0.43;;;;;;;7.16;100.00;97916.59;5091324;28;20907;-60
2024/01/04 06:24:32;;;;;;;0.30;0.30;;;;;;;7.13;100.00;97918.72;5093818;28;20096;-60
2024/01/04 06:26:59;;;;;;;0.30;0.30;;;;;;;7.15;100.00;97923.00;5090264;28;20150;-60
2024/01/04 06:29:26;;;;;;;0.30;0.30;;;;;;;7.12;100.00;97925.13;5097072;28;20096;-59
2024/01/04 06:31:53;;;;;;;0.30;0.30;;;;;;;7.06;100.00;97931.47;5075515;28;20046;-60
2024/01/04 06:34:20;;;;;;;0.30;0.30;;;;;;;6.92;100.00;97932.91;5089802;28;20097;-60
2024/01/04 06:36:48;;;;;;;0.40;0.40;;;;;;;6.74;100.00;97941.19;5084670;28;20093;-60
2024/01/04 06:39:15;;;;;;;0.30;0.30;;;;;;;6.72;100.00;97951.31;5069572;28;20806;-60
2024/01/04 06:41:44;;;;;;;0.40;0.40;;;;;;;6.64;100.00;97948.03;5093247;28;20047;-60
2024/01/04 06:44:11;;;;;;;0.40;0.40;;;;;;;6.70;100.00;97954.22;5087411;28;20046;-60
2024/01/04 06:46:38;;;;;;;0.28;0.28;;;;;;;6.85;100.00;97951.72;5090638;28;20396;-60
2024/01/04 06:49:06;;;;;;;0.30;0.30;;;;;;;6.92;100.00;97959.53;5096410;28;20075;-60
2024/01/04 06:51:33;;;;;;;0.32;0.32;;;;;;;6.98;100.00;97952.41;5097268;28;20387;-60
2024/01/04 06:54:00;;;;;;;0.30;0.30;;;;;;;7.08;100.00;97963.97;5096977;28;20047;-60
2024/01/04 06:56:27;;;;;;;0.30;0.30;;;;;;;7.11;100.00;97966.16;5095323;28;20222;-60
2024/01/04 06:58:55;;;;;;;0.32;0.32;;;;;;;7.12;100.00;97967.75;5077329;28;20109;-60
2024/01/04 07:01:22;;;;;;;0.35;0.35;;;;;;;7.11;100.00;97973.31;5075987;28;20398;-60
2024/01/04 07:03:50;;;;;;;0.30;0.30;;;;;;;7.12;100.00;97974.94;5093396;28;20044;-60
2024/01/04 07:06:17;;;;;;;0.30;0.30;;;;;;;6.85;100.00;97977.56;5086590;28;20151;-60
2024/01/04 07:08:44;;;;;;;0.40;0.40;;;;;;;6.64;100.00;97977.31;5095435;28;20036;-60
2024/01/04 07:11:11;;;;;;;0.40;0.40;;;;;;;6.60;100.00;97980.72;5094675;28;20060;-58
2024/01/04 07:13:38;;;;;;;0.30;0.30;;;;;;;6.56;100.00;97988.38;5087834;28;20040;-59
2024/01/04 07:16:06;;;;;;;0.40;0.40;;;;;;;6.41;100.00;97980.19;5090962;28;20043;-58
2024/01/04 07:18:33;;;;;;;0.40;0.40;;;;;;;6.39;100.00;97988.44;5072919;28;20059;-59
2024/01/04 07:21:00;;;;;;;0.25;0.25;;;;;;;6.29;100.00;97982.16;5094829;28;20051;-59
2024/01/04 07:23:27;;;;;;;0.32;0.32;;;;;;;6.28;100.00;97981.34;5090126;28;20126;-59
2024/01/04 07:25:55;;;;;;;0.30;0.30;;;;;;;6.30;100.00;97989.09;5092025;28;20048;-59
2024/01/04 07:28:22;;;;;;;0.30;0.30;;;;;;;6.40;100.00;97998.03;5088204;28;20131;-59
2024/01/04 07:30:50;;;;;;;0.30;0.30;;;;;;;6.65;100.00;98002.88;5088595;28;20085;-61
2024/01/04 07:33:21;;;;;;;0.40;0.40;;;;;;;6.73;100.00;98001.66;5094619;28;20057;-60
2024/01/04 07:35:47;;;;;;;;;;;;;;;6.80;100.00;98012.94;5094116;28;20040;-58
2024/01/04 07:38:15;;;;;;;0.40;0.40;;;;;;;6.87;100.00;98018.09;5094033;28;20321;-58
2024/01/04 07:40:42;;;;;;;0.50;0.50;;;;;;;6.80;100.00;98022.78;5073814;28;20116;-58
2024/01/04 07:43:10;;;;;;;0.30;0.30;;;;;;;6.79;100.00;98018.50;5095015;28;20127;-59
2024/01/04 07:45:37;;;;;;;0.47;0.47;;;;;;;6.83;100.00;98022.28;5091548;28;20047;-60
2024/01/04 07:48:05;;;;;;;0.30;0.30;;;;;;;6.76;100.00;98026.97;5089887;28;20044;-60
2024/01/04 07:50:34;;;;;;;0.38;0.38;;;;;;;6.75;100.00;98033.38;5092915;28;20109;-61
2024/01/04 07:53:01;;;;;;;0.38;0.38;;;;;;;6.68;100.00;98037.00;5092959;28;20039;-61
2024/01/04 07:55:28;;;;;;;0.32;0.32;;;;;;;6.64;100.00;98033.25;5074234;28;20665;-59
2024/01/04 07:57:55;;;;;;;0.30;0.30;;;;;;;6.64;100.00;98025.25;5089239;28;20040;-58
2024/01/04 08:00:22;;;;;;;0.40;0.40;;;;;;;6.68;100.00;98026.34;5094892;28;20577;-58
2024/01/04 08:02:49;;;;;;;0.30;0.30;;;;;;;6.78;100.00;98032.88;5091224;28;20471;-61
2024/01/04 08:05:16;;;;;;;0.30;0.30;;;;;;;6.83;100.00;98024.94;5091996;28;20129;-60
2024/01/04 08:07:44;;;;;;;0.30;0.30;;;;;;;6.90;100.00;98028.22;5095290;28;20043;-61
2024/01/04 08:10:11;;;;;;;0.30;0.30;;;;;;;7.03;100.00;98035.03;5093933;28;20467;-60
2024/01/04 08:12:41;;;;;;;0.50;0.50;;;;;;;7.06;100.00;98032.69;5096928;28;20055;-60
2024/01/04 08:15:09;;;;;;;0.32;0.32;;;;;;;6.99;100.00;98044.56;5094517;28;20136;-59
2024/01/04 08:17:36;;;;;;;0.30;0.30;;;;;;;7.01;100.00;98043.28;5097668;28;20492;-61
2024/01/04 08:20:04;;;;;;;0.30;0.30;;;;;;;7.00;100.00;98046.19;5097204;28;20100;-60
2024/01/04 08:22:31;;;;;;;0.30;0.30;;;;;;;7.00;100.00;98046.19;5097541;28;20769;-61
2024/01/04 08:25:00;;;;;;;0.30;0.30;;;;;;;7.01;100.00;98048.59;5087267;28;20048;-61
2024/01/04 08:27:27;;;;;;;0.30;0.30;;;;;;;7.02;100.00;98060.88;5091379;28;20425;-59
2024/01/04 08:29:54;;;;;;;0.38;0.38;;;;;;;7.10;100.00;98070.31;5100651;28;20140;-62
2024/01/04 08:32:21;;;;;;;0.30;0.30;;;;;;;7.21;100.00;98072.03;5095386;28;20576;-60
2024/01/04 08:34:48;;;;;;;0.40;0.40;;;;;;;7.09;100.00;98079.34;5091810;28;20082;-59
2024/01/04 08:37:18;;;;;;;0.30;0.30;;;;;;;7.17;100.00;98078.13;5092764;28;20044;-59
2024/01/04 08:39:45;;;;;;;0.30;0.30;;;;;;;7.06;100.00;98082.50;5097113;28;20039;-59
2024/01/04 08:42:13;;;;;;;0.32;0.32;;;;;;;7.12;100.00;98092.97;5099828;28;20139;-61
2024/01/04 08:44:41;;;;;;;0.38;0.38;;;;;;;7.16;100.00;98084.47;5100245;28;20040;-59
2024/01/04 08:47:08;;;;;;;0.40;0.40;;;;;;;7.26;100.00;98090.75;5095818;28;20047;-59
2024/01/04 08:49:39;;;;;;;0.40;0.40;;;;;;;7.31;100.00;98090.00;5101158;28;20052;-59
2024/01/04 08:52:07;;;;;;;0.30;0.30;;;;;;;7.35;100.00;98097.25;5089413;28;20046;-59
2024/01/04 08:54:34;;;;;;;0.38;0.38;;;;;;;7.30;100.00;98093.72;5100741;28;20445;-59
2024/01/04 08:57:01;;;;;;;0.40;0.40;;;;;;;7.40;100.00;98098.38;5095291;28;20040;-59
2024/01/04 08:59:29;;;;;;;0.30;0.30;;;;;;;7.38;100.00;98100.47;5097211;28;20052;-59
2024/01/04 09:01:56;;;;;;;0.30;0.30;;;;;;;7.39;100.00;98102.06;5098178;28;20048;-59
2024/01/04 09:04:23;;;;;;;0.40;0.40;;;;;;;7.35;100.00;98096.44;5097645;28;20050;-59
2024/01/04 09:06:50;;;;;;;0.30;0.30;;;;;;;7.36;100.00;98095.38;5097298;28;20558;-59
2024/01/04 09:09:17;;;;;;;0.30;0.30;;;;;;;7.31;100.00;98098.00;5099767;28;20112;-59
2024/01/04 09:11:48;;;;;;;0.40;0.40;;;;;;;7.48;100.00;98096.06;5093407;28;20059;-59
2024/01/04 09:14:15;;;;;;;0.40;0.40;;;;;;;7.70;100.00;98092.56;5093452;28;20105;-58
2024/01/04 09:16:44;;;;;;;0.40;0.40;;;;;;;8.13;100.00;98096.16;5097781;28;20043;-61
2024/01/04 09:19:15;;;;;;;0.30;0.30;;;;;;;9.01;100.00;98087.69;5094761;28;20036;-61
2024/01/04 09:21:42;;;;;;;0.40;0.40;;;;;;;8.93;100.00;98082.84;5090228;28;20052;-61
2024/01/04 09:24:09;;;;;;;0.30;0.30;;;;;;;8.72;100.00;98089.97;5092475;28;20039;-60
2024/01/04 09:26:39;;;;;;;0.30;0.30;;;;;;;8.35;100.00;98104.88;5095821;28;20610;-60
2024/01/04 09:29:07;;;;;;;0.30;0.30;;;;;;;8.42;100.00;98110.06;5098648;28;20036;-60
2024/01/04 09:31:34;;;;;;;0.20;0.20;;;;;;;8.34;100.00;98107.81;5098039;28;20138;-60
2024/01/04 09:34:02;;;;;;;0.30;0.30;;;;;;;8.30;100.00;98112.06;5096493;28;20070;-60
2024/01/04 09:36:29;;;;;;;0.30;0.30;;;;;;;8.26;100.00;98126.97;5093554;28;20493;-60
2024/01/04 09:38:56;;;;;;;0.40;0.40;;;;;;;9.02;100.00;98124.06;5091570;28;20655;-60
2024/01/04 09:41:26;;;;;;;0.20;0.20;;;;;;;8.60;100.00;98127.53;5093474;28;20047;-60
2024/01/04 09:43:55;;;;;;;0.20;0.20;;;;;;;8.54;100.00;98132.03;5095078;28;20054;-60
2024/01/04 09:46:22;;;;;;;0.20;0.20;;;;;;;8.50;100.00;98138.16;5094170;28;20036;-60
2024/01/04 09:48:51;;;;;;;0.20;0.20;;;;;;;8.58;100.00;98145.69;5096669;28;20051;-60
2024/01/04 09:51:20;;;;;;;0.40;0.40;;;;;;;8.74;100.00;98146.63;5097514;28;20486;-59
2024/01/04 09:53:47;;;;;;;0.30;0.30;;;;;;;9.00;100.00;98151.03;5092457;28;20056;-59
2024/01/04 09:56:14;;;;;;;0.30;0.30;;;;;;;9.05;100.00;98153.75;5090897;28;20047;-59
2024/01/04 09:58:41;;;;;;;0.20;0.20;;;;;;;9.66;98.85;98166.63;5090663;28;20126;-59
2024/01/04 10:01:09;;;;;;;0.28;0.28;;;;;;;9.52;99.59;98164.69;5093716;28;20051;-59
2024/01/04 10:03:38;;;;;;;0.20;0.20;;;;;;;9.31;99.72;98169.13;5095016;28;20569;-60
2024/01/04 10:06:07;;;;;;;0.20;0.20;;;;;;;9.12;100.00;98172.22;5091231;28;20070;-59
2024/01/04 10:08:38;;;;;;;0.20;0.20;;;;;;;8.92;100.00;98178.25;5094779;28;20044;-60
2024/01/04 10:11:10;;;;;;;0.30;0.30;;;;;;;8.64;100.00;98182.06;5096217;28;20074;-60
2024/01/04 10:13:40;;;;;;;0.30;0.30;;;;;;;8.96;100.00;98189.22;5092358;28;20077;-60
2024/01/04 10:16:11;;;;;;;0.40;0.40;;;;;;;9.67;92.88;98188.81;5089877;28;20546;-61
2024/01/04 10:18:39;;;;;;;0.20;0.20;;;;;;;10.08;90.76;98180.91;5094794;28;20044;-60
2024/01/04 10:21:08;;;;;;;0.30;0.30;;;;;;;9.93;88.93;98176.31;5086085;28;20051;-60
2024/01/04 10:23:41;;;;;;;0.38;0.38;;;;;;;9.86;89.56;98178.44;5068358;28;20056;-60
2024/01/04 10:26:11;;;;;;;0.20;0.20;;;;;;;9.86;91.25;98183.78;5068301;28;20055;-60
2024/01/04 10:28:39;;;;;;;0.20;0.20;;;;;;;9.60;94.43;98183.69;5096789;28;20042;-61
2024/01/04 10:31:07;;;;;;;0.15;0.15;;;;;;;9.43;95.36;98189.22;5076828;28;20044;-61
2024/01/04 10:33:35;;;;;;;0.30;0.30;;;;;;;9.35;96.03;98191.59;5091975;28;20063;-60
2024/01/04 10:36:11;;;;;;;0.30;0.30;;;;;;;9.12;98.64;98193.63;5091803;28;20577;-61
2024/01/04 10:38:39;;;;;;;0.30;0.30;;;;;;;9.03;99.82;98189.81;5083790;28;20055;-60
2024/01/04 10:41:07;;;;;;;0.20;0.20;;;;;;;9.02;99.65;98198.91;5071777;28;20046;-60
2024/01/04 10:43:35;;;;;;;0.20;0.20;;;;;;;8.90;100.00;98201.75;5092104;28;20060;-60
2024/01/04 10:46:07;;;;;;;0.25;0.25;;;;;;;8.77;100.00;98212.88;5069417;28;20052;-60
2024/01/04 10:48:53;;;;;;;0.30;0.30;;;;;;;8.67;100.00;98218.16;5089964;28;20074;-60
2024/01/04 10:51:22;;;;;;;0.20;0.20;;;;;;;8.48;100.00;98210.50;5069143;28;20226;-60
2024/01/04 10:53:51;;;;;;;0.20;0.20;;;;;;;8.63;100.00;98223.16;5091910;28;20394;-60
2024/01/04 10:56:19;;;;;;;0.20;0.20;;;;;;;8.72;100.00;98227.00;5069491;28;20435;-60
2024/01/04 10:58:49;;;;;;;0.20;0.20;;;;;;;8.78;100.00;98220.63;5086262;28;20685;-60
2024/01/04 11:01:17;;;;;;;0.30;0.30;;;;;;;8.95;100.00;98217.03;5092074;28;20367;-60
2024/01/04 11:03:45;;;;;;;0.30;0.30;;;;;;;9.13;100.00;98219.28;5088222;28;20493;-61
2024/01/04 11:06:15;;;;;;;0.30;0.30;;;;;;;9.31;100.00;98218.06;5090075;28;20066;-61
2024/01/04 11:08:43;;;;;;;0.20;0.20;;;;;;;9.36;98.62;98225.28;5075985;28;20097;-61
2024/01/04 11:11:12;;;;;;;0.30;0.30;;;;;;;9.66;97.58;98232.66;5090003;28;20071;-58
2024/01/04 11:13:41;;;;;;;0.30;0.30;;;;;;;9.57;96.94;98221.69;5093932;28;20052;-59
2024/01/04 11:16:10;;;;;;;0.30;0.30;;;;;;;9.87;95.05;98225.56;5085765;28;20348;-61
2024/01/04 11:18:45;;;;;;;0.20;0.20;;;;;;;9.85;92.80;98225.00;5086736;28;20070;-59
2024/01/04 11:21:29;;;;;;;0.30;0.30;;;;;;;10.09;91.57;98228.84;5087663;28;20054;-58
2024/01/04 11:24:05;;;;;;;0.30;0.30;;;;;;;9.94;91.30;98224.25;5091981;28;20408;-58
2024/01/04 11:26:40;;;;;;;0.25;0.25;;;;;;;9.93;89.22;98222.63;5090962;28;20061;-60
2024/01/04 11:29:10;;;;;;;0.20;0.20;;;;;;;9.98;88.85;98216.47;5090103;28;20122;-60
2024/01/04 11:31:42;;;;;;;0.20;0.20;;;;;;;9.69;87.77;98224.94;5072866;28;20051;-60
2024/01/04 11:34:11;;;;;;;0.20;0.20;;;;;;;9.97;87.05;98220.22;5089402;28;20404;-60
2024/01/04 11:36:39;;;;;;;0.25;0.25;;;;;;;10.00;86.12;98221.56;5095609;28;20044;-60